Roundup, Montana
Current Conditions -  °F | °C
As of 1:40 PM on Sunday 21 Dec 2014 (Local Time) from KMVH Reporting Station
Broken Clouds Broken Clouds  
Wind Chill: 36°   Ceiling: 6000
Heat Index: 45°   Visibility: 10mi
Dew Point: 25°   Wind: 21mph
Humidity: 46%   Direction: 310°NW
Pressure: 29.36"   Gusts: 31mph
Location:  46.45°N, 108.54°W
Report Text: KMVH 212040Z AUTO 31018G27KT 10SM BKN060 BKN080 07/M04 A2936 RMK A01
Loading
Personal Weather Stations






























Interactive Weather Map New forecast layout! Learn more

10-Day Weather Forecast

Advertisements
Track Severe Weather on mobile